HAZ608 VMMC-ZSHC
Flight info
| Callsign | HAZ608 |
|---|---|
| Flight time | N/A |
| Altitude | 37000 |
| Route | NUDPI V601 DOTMI/K0893S1130 A470 UGAGO UGAGO13 |
| Aircraft | B77W/H-SDE1E2E3FGHIJ2J3J4J5M1RWXY/LB1D1 |
Departure
| Time | 2026-04-23 22:46 |
|---|---|
| Airport | Macau International Airport (VMMC) |
Arrival
| Time | N/A |
|---|---|
| Airport | Hangzhou Xiaoshan International Airport (ZSHC) |
| Time | Latitude | Longitude | Altitude | Speed | Heading |
|---|---|---|---|---|---|
| 2026-04-23 22:31 | 22.15799 | 113.57594 | 34 ft | 0 kts | 291° |
| 2026-04-23 22:36 | 22.15796 | 113.57602 | 34 ft | 2 kts | 291° |
| 2026-04-23 22:36 | 22.15793 | 113.57612 | 34 ft | 2 kts | 290° |
| 2026-04-23 22:36 | 22.15789 | 113.57626 | 34 ft | 1 kts | 274° |
| 2026-04-23 22:36 | 22.15789 | 113.57639 | 34 ft | 1 kts | 258° |
| 2026-04-23 22:37 | 22.15793 | 113.57653 | 34 ft | 1 kts | 245° |
| 2026-04-23 22:37 | 22.15800 | 113.57665 | 34 ft | 1 kts | 231° |
| 2026-04-23 22:37 | 22.15809 | 113.57676 | 34 ft | 1 kts | 216° |
| 2026-04-23 22:37 | 22.15821 | 113.57683 | 34 ft | 1 kts | 202° |
| 2026-04-23 22:38 | 22.15828 | 113.57686 | 34 ft | 1 kts | 194° |
| 2026-04-23 22:38 | 22.15830 | 113.57687 | 34 ft | 0 kts | 194° |
| 2026-04-23 22:39 | 22.15818 | 113.57683 | 34 ft | 8 kts | 194° |
| 2026-04-23 22:40 | 22.15714 | 113.57640 | 34 ft | 22 kts | 212° |
| 2026-04-23 22:40 | 22.15617 | 113.57604 | 34 ft | 12 kts | 145° |
| 2026-04-23 22:40 | 22.15500 | 113.57786 | 34 ft | 17 kts | 124° |
| 2026-04-23 22:41 | 22.15412 | 113.57925 | 34 ft | 26 kts | 123° |
| 2026-04-23 22:41 | 22.15294 | 113.58118 | 34 ft | 35 kts | 124° |
| 2026-04-23 22:41 | 22.15194 | 113.58281 | 34 ft | 20 kts | 123° |
| 2026-04-23 22:41 | 22.15116 | 113.58407 | 34 ft | 19 kts | 123° |
| 2026-04-23 22:42 | 22.15044 | 113.58525 | 34 ft | 18 kts | 124° |
| 2026-04-23 22:42 | 22.14976 | 113.58633 | 34 ft | 16 kts | 124° |
| 2026-04-23 22:42 | 22.14911 | 113.58738 | 34 ft | 16 kts | 123° |
| 2026-04-23 22:42 | 22.14847 | 113.58843 | 34 ft | 16 kts | 123° |
| 2026-04-23 22:43 | 22.14778 | 113.58953 | 34 ft | 19 kts | 123° |
| 2026-04-23 22:43 | 22.14660 | 113.59055 | 34 ft | 22 kts | 161° |
| 2026-04-23 22:43 | 22.14484 | 113.59122 | 34 ft | 26 kts | 161° |
| 2026-04-23 22:43 | 22.14300 | 113.59188 | 34 ft | 24 kts | 161° |
| 2026-04-23 22:44 | 22.14128 | 113.59252 | 34 ft | 23 kts | 161° |
| 2026-04-23 22:44 | 22.13971 | 113.59310 | 34 ft | 22 kts | 161° |
| 2026-04-23 22:44 | 22.13828 | 113.59362 | 34 ft | 20 kts | 161° |
| 2026-04-23 22:44 | 22.13693 | 113.59412 | 34 ft | 19 kts | 161° |
| 2026-04-23 22:45 | 22.13571 | 113.59463 | 34 ft | 17 kts | 142° |
| 2026-04-23 22:45 | 22.13499 | 113.59568 | 34 ft | 15 kts | 111° |
| 2026-04-23 22:45 | 22.13543 | 113.59648 | 34 ft | 13 kts | 2° |
| 2026-04-23 22:45 | 22.13586 | 113.59638 | 34 ft | 0 kts | 341° |
| 2026-04-23 22:46 | 22.13653 | 113.59613 | 34 ft | 38 kts | 341° |
| 2026-04-23 22:46 | 22.14240 | 113.59396 | 35 ft | 137 kts | 341° |
| 2026-04-23 22:46 | 22.15356 | 113.59034 | 472 ft | 186 kts | 354° |
| 2026-04-23 22:46 | 22.16585 | 113.59273 | 1776 ft | 180 kts | 22° |
| 2026-04-23 22:47 | 22.17779 | 113.59785 | 2406 ft | 194 kts | 24° |
| 2026-04-23 22:47 | 22.19104 | 113.60365 | 2935 ft | 215 kts | 24° |
| 2026-04-23 22:47 | 22.20545 | 113.60997 | 3534 ft | 233 kts | 24° |
| 2026-04-23 22:47 | 22.22114 | 113.61686 | 4224 ft | 250 kts | 22° |
| 2026-04-23 22:48 | 22.23780 | 113.62415 | 4934 ft | 266 kts | 22° |
| 2026-04-23 22:48 | 22.25560 | 113.63193 | 5669 ft | 282 kts | 21° |
| 2026-04-23 22:48 | 22.27385 | 113.63995 | 6689 ft | 285 kts | 22° |
| 2026-04-23 22:48 | 22.29116 | 113.65122 | 7628 ft | 293 kts | 34° |
| 2026-04-23 22:49 | 22.30755 | 113.66517 | 8546 ft | 300 kts | 36° |
| 2026-04-23 22:49 | 22.32427 | 113.67977 | 9507 ft | 304 kts | 36° |
| 2026-04-23 22:49 | 22.33923 | 113.69732 | 10354 ft | 317 kts | 59° |
| 2026-04-23 22:49 | 22.34729 | 113.72067 | 11386 ft | 320 kts | 75° |
| 2026-04-23 22:50 | 22.35213 | 113.74429 | 12264 ft | 325 kts | 77° |
| 2026-04-23 22:50 | 22.35663 | 113.76816 | 13121 ft | 329 kts | 77° |
| 2026-04-23 22:50 | 22.36123 | 113.79235 | 14023 ft | 331 kts | 77° |
| 2026-04-23 22:50 | 22.36594 | 113.81677 | 14680 ft | 341 kts | 77° |
| 2026-04-23 22:51 | 22.36966 | 113.84280 | 15229 ft | 356 kts | 87° |
| 2026-04-23 22:51 | 22.36908 | 113.86993 | 15817 ft | 367 kts | 98° |
| 2026-04-23 22:51 | 22.36382 | 113.89713 | 16325 ft | 379 kts | 110° |
| 2026-04-23 22:51 | 22.35345 | 113.92380 | 16784 ft | 390 kts | 121° |
| 2026-04-23 22:52 | 22.33836 | 113.94912 | 17154 ft | 405 kts | 128° |
| 2026-04-23 22:52 | 22.32178 | 113.97449 | 17554 ft | 421 kts | 128° |
| 2026-04-23 22:52 | 22.30465 | 114.00078 | 17966 ft | 436 kts | 128° |
| 2026-04-23 22:52 | 22.28698 | 114.02806 | 18485 ft | 447 kts | 128° |
| 2026-04-23 22:53 | 22.26819 | 114.05718 | 19250 ft | 452 kts | 128° |
| 2026-04-23 22:53 | 22.24789 | 114.08871 | 20134 ft | 454 kts | 128° |
| 2026-04-23 22:53 | 22.22771 | 114.12006 | 20850 ft | 460 kts | 128° |
| 2026-04-23 22:53 | 22.20763 | 114.15127 | 21503 ft | 466 kts | 128° |
| 2026-04-23 22:54 | 22.18786 | 114.18199 | 22170 ft | 471 kts | 128° |
| 2026-04-23 22:54 | 22.16848 | 114.21213 | 22893 ft | 473 kts | 128° |
| 2026-04-23 22:54 | 22.14769 | 114.24444 | 23509 ft | 479 kts | 129° |
| 2026-04-23 22:54 | 22.12611 | 114.27795 | 24029 ft | 487 kts | 128° |
| 2026-04-23 22:55 | 22.10370 | 114.31273 | 24707 ft | 492 kts | 129° |
| 2026-04-23 22:55 | 22.08151 | 114.34718 | 25378 ft | 497 kts | 129° |
| 2026-04-23 22:55 | 22.05936 | 114.38178 | 25981 ft | 503 kts | 128° |
| 2026-04-23 22:55 | 22.03704 | 114.41727 | 26604 ft | 509 kts | 128° |
| 2026-04-23 22:56 | 22.01454 | 114.45309 | 27271 ft | 513 kts | 128° |
| 2026-04-23 22:56 | 21.99136 | 114.48994 | 27859 ft | 520 kts | 128° |
| 2026-04-23 22:56 | 21.97176 | 114.52738 | 28446 ft | 530 kts | 118° |
| 2026-04-23 22:56 | 21.95686 | 114.57081 | 29010 ft | 542 kts | 108° |
| 2026-04-23 22:57 | 21.94659 | 114.61642 | 29715 ft | 546 kts | 105° |
| 2026-04-23 22:57 | 21.93772 | 114.65848 | 30577 ft | 545 kts | 105° |
| 2026-04-23 22:57 | 21.92931 | 114.69831 | 31289 ft | 545 kts | 105° |
| 2026-04-23 22:57 | 21.92029 | 114.74084 | 31923 ft | 546 kts | 105° |
| 2026-04-23 22:58 | 21.91060 | 114.78632 | 32602 ft | 547 kts | 105° |
| 2026-04-23 22:58 | 21.90149 | 114.82890 | 33262 ft | 548 kts | 105° |
| 2026-04-23 22:58 | 21.89320 | 114.86760 | 33957 ft | 547 kts | 105° |
| 2026-04-23 22:58 | 21.88646 | 114.90885 | 34810 ft | 545 kts | 97° |
| 2026-04-23 22:59 | 21.88510 | 114.95152 | 35692 ft | 540 kts | 89° |
| 2026-04-23 22:59 | 21.88623 | 114.99438 | 36403 ft | 539 kts | 89° |
| 2026-04-23 22:59 | 21.88756 | 115.03602 | 36899 ft | 540 kts | 89° |
| 2026-04-23 23:00 | 21.89015 | 115.11747 | 36942 ft | 539 kts | 88° |
| 2026-04-23 23:00 | 21.89281 | 115.20295 | 36946 ft | 538 kts | 88° |
| 2026-04-23 23:01 | 21.89538 | 115.28701 | 36949 ft | 539 kts | 89° |
| 2026-04-23 23:01 | 21.89784 | 115.36896 | 36946 ft | 540 kts | 89° |
| 2026-04-23 23:02 | 21.90029 | 115.45197 | 36939 ft | 538 kts | 88° |
| 2026-04-23 23:02 | 21.90273 | 115.53601 | 36940 ft | 538 kts | 88° |
| 2026-04-23 23:03 | 21.90591 | 115.61903 | 36935 ft | 537 kts | 83° |
| 2026-04-23 23:03 | 21.92068 | 115.70118 | 36926 ft | 540 kts | 77° |
| 2026-04-23 23:04 | 21.93759 | 115.78420 | 36928 ft | 538 kts | 77° |
| 2026-04-23 23:04 | 21.95450 | 115.86756 | 36928 ft | 538 kts | 77° |
| 2026-04-23 23:05 | 21.97062 | 115.94734 | 36929 ft | 538 kts | 77° |
| 2026-04-23 23:05 | 21.99438 | 116.02432 | 36930 ft | 533 kts | 60° |
| 2026-04-23 23:06 | 22.03684 | 116.09015 | 36932 ft | 529 kts | 42° |
| 2026-04-23 23:06 | 22.09421 | 116.13956 | 36938 ft | 513 kts | 24° |
| 2026-04-23 23:07 | 22.15982 | 116.16818 | 36939 ft | 500 kts | 6° |
| 2026-04-23 23:07 | 22.22960 | 116.17661 | 36952 ft | 486 kts | 354° |
| 2026-04-23 23:08 | 22.29819 | 116.17791 | 36960 ft | 483 kts | 352° |
| 2026-04-23 23:08 | 22.36532 | 116.17764 | 36959 ft | 480 kts | 351° |
| 2026-04-23 23:09 | 22.43260 | 116.17648 | 36964 ft | 484 kts | 351° |
| 2026-04-23 23:09 | 22.49969 | 116.17486 | 36961 ft | 479 kts | 351° |
| 2026-04-23 23:10 | 22.56693 | 116.17294 | 36965 ft | 481 kts | 350° |
| 2026-04-23 23:10 | 22.63399 | 116.17091 | 36967 ft | 482 kts | 350° |
| 2026-04-23 23:11 | 22.70156 | 116.17780 | 36967 ft | 498 kts | 7° |
| 2026-04-23 23:11 | 22.73500 | 116.18976 | 36971 ft | 511 kts | 16° |
| 2026-04-23 23:11 | 22.76707 | 116.20753 | 36960 ft | 517 kts | 26° |
| 2026-04-23 23:12 | 22.82534 | 116.25466 | 36962 ft | 527 kts | 32° |
| 2026-04-23 23:12 | 22.88304 | 116.30357 | 36963 ft | 527 kts | 32° |
| 2026-04-23 23:13 | 22.94126 | 116.35254 | 36962 ft | 525 kts | 32° |
| 2026-04-23 23:13 | 22.99906 | 116.40069 | 36966 ft | 526 kts | 31° |
| 2026-04-23 23:14 | 23.05787 | 116.44942 | 36971 ft | 529 kts | 31° |
| 2026-04-23 23:14 | 23.11591 | 116.49751 | 36973 ft | 528 kts | 31° |
| 2026-04-23 23:15 | 23.17469 | 116.54623 | 36975 ft | 527 kts | 31° |
| 2026-04-23 23:15 | 23.23314 | 116.59470 | 36976 ft | 529 kts | 31° |
| 2026-04-23 23:16 | 23.29138 | 116.64306 | 36973 ft | 528 kts | 31° |
| 2026-04-23 23:16 | 23.33902 | 116.68264 | 36959 ft | 528 kts | 32° |
| 2026-04-23 23:17 | 23.39704 | 116.73090 | 36957 ft | 530 kts | 32° |
| 2026-04-23 23:17 | 23.45415 | 116.78278 | 36964 ft | 534 kts | 40° |
| 2026-04-23 23:18 | 23.50607 | 116.84131 | 36972 ft | 538 kts | 41° |
| 2026-04-23 23:18 | 23.55776 | 116.90007 | 36975 ft | 537 kts | 41° |
| 2026-04-23 23:19 | 23.60950 | 116.95892 | 36974 ft | 537 kts | 41° |
| 2026-04-23 23:19 | 23.66117 | 117.01772 | 36983 ft | 538 kts | 41° |
| 2026-04-23 23:20 | 23.71314 | 117.07693 | 36989 ft | 540 kts | 41° |
| 2026-04-23 23:20 | 23.76488 | 117.13594 | 36992 ft | 541 kts | 42° |
| 2026-04-23 23:21 | 23.81998 | 117.19170 | 36994 ft | 538 kts | 36° |
| 2026-04-23 23:21 | 23.87616 | 117.24570 | 37000 ft | 536 kts | 36° |
| 2026-04-23 23:22 | 23.93187 | 117.29964 | 37010 ft | 538 kts | 36° |
| 2026-04-23 23:22 | 23.98775 | 117.35405 | 37020 ft | 538 kts | 36° |
| 2026-04-23 23:23 | 24.04400 | 117.40900 | 37024 ft | 537 kts | 36° |
| 2026-04-23 23:23 | 24.09975 | 117.46359 | 37029 ft | 541 kts | 36° |
| 2026-04-23 23:24 | 24.15357 | 117.51959 | 37035 ft | 543 kts | 42° |
| 2026-04-23 23:24 | 24.20496 | 117.58105 | 37021 ft | 545 kts | 43° |
| 2026-04-23 23:25 | 24.25606 | 117.64245 | 37021 ft | 547 kts | 43° |
| 2026-04-23 23:25 | 24.30141 | 117.69698 | 36995 ft | 547 kts | 43° |
| 2026-04-23 23:26 | 24.35306 | 117.75914 | 36995 ft | 550 kts | 43° |
| 2026-04-23 23:26 | 24.40439 | 117.82100 | 36993 ft | 549 kts | 43° |
| 2026-04-23 23:27 | 24.45610 | 117.88337 | 36998 ft | 550 kts | 43° |
| 2026-04-23 23:27 | 24.50800 | 117.94605 | 36997 ft | 550 kts | 43° |
| 2026-04-23 23:28 | 24.55947 | 118.00830 | 37001 ft | 550 kts | 43° |
| 2026-04-23 23:28 | 24.61246 | 118.06963 | 37001 ft | 550 kts | 41° |
| 2026-04-23 23:29 | 24.66616 | 118.13028 | 37000 ft | 550 kts | 41° |
| 2026-04-23 23:29 | 24.72003 | 118.19134 | 37003 ft | 552 kts | 41° |
| 2026-04-23 23:30 | 24.77354 | 118.25223 | 37002 ft | 552 kts | 41° |
| 2026-04-23 23:30 | 24.82681 | 118.31297 | 37003 ft | 552 kts | 41° |
| 2026-04-23 23:31 | 24.88056 | 118.37437 | 37004 ft | 552 kts | 41° |
| 2026-04-23 23:31 | 24.93396 | 118.43546 | 37010 ft | 553 kts | 41° |
| 2026-04-23 23:32 | 24.98742 | 118.49672 | 37010 ft | 553 kts | 41° |
| 2026-04-23 23:32 | 25.04098 | 118.55817 | 37015 ft | 553 kts | 41° |
| 2026-04-23 23:33 | 25.09473 | 118.61993 | 37024 ft | 554 kts | 41° |
| 2026-04-23 23:33 | 25.14409 | 118.67892 | 36991 ft | 555 kts | 43° |
| 2026-04-23 23:34 | 25.18828 | 118.73244 | 36996 ft | 556 kts | 44° |
| 2026-04-23 23:34 | 25.23957 | 118.79454 | 36999 ft | 556 kts | 43° |
| 2026-04-23 23:35 | 25.29165 | 118.85762 | 37004 ft | 558 kts | 43° |
| 2026-04-23 23:35 | 25.34438 | 118.92154 | 37014 ft | 558 kts | 43° |
| 2026-04-23 23:36 | 25.39730 | 118.98363 | 37019 ft | 556 kts | 41° |
| 2026-04-23 23:36 | 25.45056 | 119.04566 | 37020 ft | 557 kts | 42° |
| 2026-04-23 23:37 | 25.50432 | 119.10843 | 37025 ft | 557 kts | 42° |
| 2026-04-23 23:37 | 25.55767 | 119.17085 | 37034 ft | 558 kts | 42° |
| 2026-04-23 23:38 | 25.61102 | 119.23340 | 37029 ft | 558 kts | 42° |
| 2026-04-23 23:38 | 25.66493 | 119.29669 | 37038 ft | 561 kts | 42° |
| 2026-04-23 23:39 | 25.72035 | 119.35632 | 37037 ft | 551 kts | 31° |
| 2026-04-23 23:39 | 25.78632 | 119.39845 | 37046 ft | 540 kts | 13° |
| 2026-04-23 23:40 | 25.85690 | 119.42429 | 37047 ft | 530 kts | 8° |
| 2026-04-23 23:40 | 25.92763 | 119.44849 | 37047 ft | 529 kts | 8° |
| 2026-04-23 23:41 | 25.99801 | 119.47252 | 37050 ft | 529 kts | 8° |
| 2026-04-23 23:41 | 26.06914 | 119.49679 | 37053 ft | 529 kts | 7° |
| 2026-04-23 23:42 | 26.13243 | 119.51838 | 37044 ft | 531 kts | 7° |
| 2026-04-23 23:42 | 26.20322 | 119.54165 | 37036 ft | 522 kts | 1° |
| 2026-04-23 23:42 | 26.23896 | 119.54761 | 37041 ft | 511 kts | 352° |
| 2026-04-23 23:43 | 26.27445 | 119.54895 | 37056 ft | 509 kts | 349° |
| 2026-04-23 23:43 | 26.34473 | 119.54984 | 37052 ft | 503 kts | 349° |
| 2026-04-23 23:44 | 26.41546 | 119.55054 | 37055 ft | 507 kts | 348° |
| 2026-04-23 23:44 | 26.48549 | 119.55097 | 37052 ft | 502 kts | 348° |
| 2026-04-23 23:45 | 26.55578 | 119.55137 | 37056 ft | 506 kts | 348° |
| 2026-04-23 23:45 | 26.62632 | 119.55179 | 37059 ft | 507 kts | 348° |
| 2026-04-23 23:46 | 26.69712 | 119.55225 | 37066 ft | 505 kts | 348° |
| 2026-04-23 23:46 | 26.76737 | 119.55268 | 37064 ft | 506 kts | 348° |
| 2026-04-23 23:47 | 26.83784 | 119.55314 | 37067 ft | 505 kts | 348° |
| 2026-04-23 23:47 | 26.90885 | 119.55357 | 37064 ft | 508 kts | 348° |
| 2026-04-23 23:48 | 26.97910 | 119.55403 | 37073 ft | 507 kts | 347° |
| 2026-04-23 23:48 | 27.04988 | 119.55450 | 37078 ft | 505 kts | 348° |
| 2026-04-23 23:49 | 27.13553 | 119.55504 | 37064 ft | 504 kts | 347° |
| 2026-04-23 23:49 | 27.20690 | 119.55547 | 37065 ft | 510 kts | 347° |
| 2026-04-23 23:50 | 27.27657 | 119.55591 | 37069 ft | 506 kts | 347° |
| 2026-04-23 23:50 | 27.34715 | 119.55602 | 37072 ft | 505 kts | 347° |
| 2026-04-23 23:51 | 27.41764 | 119.55610 | 37074 ft | 506 kts | 347° |
| 2026-04-23 23:51 | 27.48803 | 119.55635 | 37081 ft | 508 kts | 347° |
| 2026-04-23 23:52 | 27.55899 | 119.55678 | 37081 ft | 508 kts | 347° |
| 2026-04-23 23:52 | 27.62963 | 119.55720 | 37081 ft | 507 kts | 347° |
| 2026-04-23 23:53 | 27.70059 | 119.55762 | 37081 ft | 505 kts | 346° |
| 2026-04-23 23:53 | 27.77008 | 119.55801 | 37083 ft | 508 kts | 347° |
| 2026-04-23 23:54 | 27.84191 | 119.55842 | 37083 ft | 507 kts | 347° |
| 2026-04-23 23:54 | 27.91285 | 119.55881 | 37086 ft | 509 kts | 346° |
| 2026-04-23 23:55 | 27.98325 | 119.55971 | 37093 ft | 510 kts | 347° |
| 2026-04-23 23:55 | 28.05413 | 119.56087 | 37091 ft | 507 kts | 347° |
| 2026-04-23 23:56 | 28.10990 | 119.56177 | 37085 ft | 506 kts | 347° |
| 2026-04-23 23:56 | 28.16868 | 119.56481 | 37082 ft | 510 kts | 349° |
| 2026-04-23 23:58 | 28.18634 | 119.56586 | 37108 ft | 508 kts | 349° |
| 2026-04-23 23:59 | 28.22144 | 119.56794 | 36943 ft | 506 kts | 349° |
| 2026-04-23 23:59 | 28.25643 | 119.56996 | 36622 ft | 507 kts | 349° |
| 2026-04-23 23:59 | 28.29206 | 119.57198 | 36298 ft | 508 kts | 349° |
| 2026-04-23 23:59 | 28.32750 | 119.57399 | 36012 ft | 509 kts | 349° |
| 2026-04-24 00:00 | 28.36281 | 119.57597 | 35720 ft | 510 kts | 349° |
| 2026-04-24 00:00 | 28.39845 | 119.57797 | 35442 ft | 511 kts | 349° |
| 2026-04-24 00:00 | 28.43392 | 119.57997 | 35308 ft | 510 kts | 349° |
| 2026-04-24 00:00 | 28.46946 | 119.58199 | 35110 ft | 510 kts | 349° |
| 2026-04-24 00:01 | 28.50476 | 119.58413 | 34797 ft | 512 kts | 349° |
| 2026-04-24 00:01 | 28.54046 | 119.58634 | 34516 ft | 514 kts | 349° |
| 2026-04-24 00:01 | 28.57585 | 119.58855 | 34322 ft | 514 kts | 349° |
| 2026-04-24 00:01 | 28.61087 | 119.59074 | 34155 ft | 514 kts | 350° |
| 2026-04-24 00:02 | 28.64626 | 119.59294 | 33933 ft | 515 kts | 349° |
| 2026-04-24 00:02 | 28.68192 | 119.59515 | 33760 ft | 515 kts | 350° |
| 2026-04-24 00:02 | 28.71800 | 119.59740 | 33613 ft | 514 kts | 350° |
| 2026-04-24 00:02 | 28.75368 | 119.59963 | 33452 ft | 514 kts | 350° |
| 2026-04-24 00:03 | 28.78937 | 119.60183 | 33205 ft | 516 kts | 350° |
| 2026-04-24 00:03 | 28.82525 | 119.60404 | 32977 ft | 518 kts | 350° |
| 2026-04-24 00:03 | 28.86116 | 119.60628 | 32843 ft | 518 kts | 350° |
| 2026-04-24 00:03 | 28.89748 | 119.60855 | 32795 ft | 516 kts | 350° |
| 2026-04-24 00:04 | 28.96855 | 119.61301 | 32770 ft | 511 kts | 350° |
| 2026-04-24 00:04 | 29.00430 | 119.61523 | 32601 ft | 512 kts | 349° |
| 2026-04-24 00:04 | 29.04000 | 119.61745 | 32334 ft | 510 kts | 350° |
| 2026-04-24 00:05 | 29.07530 | 119.61966 | 31509 ft | 513 kts | 350° |
| 2026-04-24 00:05 | 29.10030 | 119.62117 | 30789 ft | 516 kts | 351° |
| 2026-04-24 00:06 | 29.15748 | 119.62470 | 29870 ft | 505 kts | 351° |
| 2026-04-24 00:06 | 29.19074 | 119.62677 | 29333 ft | 499 kts | 351° |
| 2026-04-24 00:06 | 29.21371 | 119.62818 | 28937 ft | 494 kts | 351° |
| 2026-04-24 00:06 | 29.24026 | 119.62981 | 28475 ft | 490 kts | 351° |
| 2026-04-24 00:07 | 29.27684 | 119.63206 | 27826 ft | 484 kts | 352° |
| 2026-04-24 00:07 | 29.31250 | 119.63424 | 27194 ft | 478 kts | 352° |
| 2026-04-24 00:07 | 29.34113 | 119.63599 | 26668 ft | 473 kts | 352° |
| 2026-04-24 00:07 | 29.37793 | 119.63824 | 25989 ft | 467 kts | 353° |
| 2026-04-24 00:08 | 29.44818 | 119.64254 | 24655 ft | 455 kts | 353° |
| 2026-04-24 00:08 | 29.48219 | 119.64462 | 24017 ft | 448 kts | 354° |
| 2026-04-24 00:09 | 29.55391 | 119.64901 | 22625 ft | 436 kts | 355° |
| 2026-04-24 00:09 | 29.56563 | 119.65005 | 22395 ft | 438 kts | 359° |
| 2026-04-24 00:09 | 29.57899 | 119.65228 | 22116 ft | 441 kts | 3° |
| 2026-04-24 00:10 | 29.61410 | 119.66399 | 21347 ft | 450 kts | 15° |
| 2026-04-24 00:10 | 29.63849 | 119.67767 | 20792 ft | 455 kts | 24° |
| 2026-04-24 00:10 | 29.66155 | 119.69586 | 20222 ft | 460 kts | 33° |
| 2026-04-24 00:10 | 29.68276 | 119.71875 | 19623 ft | 464 kts | 44° |
| 2026-04-24 00:11 | 29.72444 | 119.78127 | 18223 ft | 461 kts | 49° |
| 2026-04-24 00:11 | 29.74269 | 119.80898 | 17587 ft | 458 kts | 49° |
| 2026-04-24 00:11 | 29.75744 | 119.83103 | 17076 ft | 455 kts | 48° |
| 2026-04-24 00:12 | 29.77744 | 119.86057 | 16380 ft | 451 kts | 49° |
| 2026-04-24 00:12 | 29.80276 | 119.89759 | 15689 ft | 441 kts | 48° |
| 2026-04-24 00:12 | 29.82193 | 119.92542 | 14944 ft | 439 kts | 48° |
| 2026-04-24 00:13 | 29.85302 | 119.97316 | 14104 ft | 427 kts | 56° |
| 2026-04-24 00:13 | 29.86731 | 120.00235 | 13486 ft | 424 kts | 59° |
| 2026-04-24 00:13 | 29.89715 | 120.06554 | 12643 ft | 402 kts | 59° |
| 2026-04-24 00:14 | 29.90998 | 120.09271 | 12313 ft | 392 kts | 59° |
| 2026-04-24 00:14 | 29.94916 | 120.17564 | 11294 ft | 363 kts | 59° |
| 2026-04-24 00:15 | 29.96065 | 120.19996 | 10985 ft | 355 kts | 58° |
| 2026-04-24 00:15 | 29.98416 | 120.24971 | 10248 ft | 342 kts | 59° |
| 2026-04-24 00:15 | 29.99499 | 120.27266 | 9948 ft | 335 kts | 59° |
| 2026-04-24 00:16 | 30.01600 | 120.31931 | 9535 ft | 313 kts | 60° |
| 2026-04-24 00:16 | 30.02518 | 120.34006 | 9522 ft | 298 kts | 60° |